Архив погоды в Иркутске

Метеограмма Иркутск
Воскресенье, 22 Июля
Время местн. Темп Ветер Видим Явления Облачность нижн/средн/верх Атм. давл. Влжн Точка росы ВНГО R Сост. почвы Tg s
Напр Скр Прв ур.ст ур.м изм
05:00 +12.2° С-В 2 - 500 м туман усиливается, небо видно облачно с прояснениями 718 759 0 98% +11.9° более 2.5 км - - - -
02:00 +13.7° З 1 - - дымка переменная облачность 718 759 +0.5 97% +13.3° 1 км - - - -
Суббота, 21 Июля
Время местн. Темп Ветер Видим Явления Облачность нижн/средн/верх Атм. давл. Влжн Точка росы ВНГО R Сост. почвы Tg s
Напр Скр Прв ур.ст ур.м изм
23:00 +14° З 1 - - дымка незначительная облачность 717 758 +1.2 97% +13.5° 1 км - - - -
20:00 +16.1° С-З 3 - 2 км дымка {ливневые осадки} облачно 716 756 +1.2 88% +14.1° 1 км 1 - - -
17:00 +15.6° З,С-З 3 - 10 км слабый ливневый дождь облачно 715 755 +1.2 93% +14.4° 1 км - - - -
14:00 +16.2° З,С-З 4 11 4 км дымка {ливневые осадки} облачно 714 754 +1 82% +13.2° 1 км - - - -
11:00 +15.9° З,С-З 4 10 20 км ливневый дождь облачно 713 753 +0.8 80% +12.4° 1 км - - - -
08:00 +15.6° З,С-З 3 10 20 км небо без изменений {ливневые осадки} облачно 712 752 +0.8 83% +12.7° 1 км 1 Влажная (без луж) +16° -
05:00 +14.9° З,С-З 2 - более 50 км ливневый дождь облачно 711 751 -0.2 90% +13.2° 1 км - - - -
02:00 +15.4° З,С-З 3 - - слабый ливневый дождь облачно 711 752 +0.6 86% +13° 1 км - - - -
Пятница, 20 Июля
Время местн. Темп Ветер Видим Явления Облачность нижн/средн/верх Атм. давл. Влжн Точка росы ВНГО R Сост. почвы Tg s
Напр Скр Прв ур.ст ур.м изм
23:00 +16.9° З,С-З 3 - - - облачно 711 751 +0.8 81% +13.6° 1 км - - - -
20:00 +18.1° З 4 11 более 50 км - облачно 710 750 +1.4 80% +14.6° 1 км 0 - - -
17:00 +23.6° З,С-З 4 - 20 км - облачно 709 747 +0.2 68% +17.4° 1 км - - - -
14:00 +25° З,С-З 1 - 20 км небо без изменений {ливневые осадки} облачно 708 747 -0.8 59% +16.4° 1 км - - - -
11:00 +19.4° штиль 0 - 10 км ливневый дождь облачно 709 748 -0.3 78% +15.5° 1 км - - - -
08:00 +17.8° Ю-В 1 - 10 км - облачно 709 749 +0.2 85% +15.2° 1 км 0 Сухая (без трещин) +18° -
05:00 +16.9° штиль 0 - 10 км - облачно с прояснениями 709 749 -1 86% +14.5° 1 км - - - -
02:00 +17.6° Ю-В 1 - - - облачно 710 750 -0.6 84% +14.8° 1 км - - - -
Четверг, 19 Июля
Время местн. Темп Ветер Видим Явления Облачность нижн/средн/верх Атм. давл. Влжн Точка росы ВНГО R Сост. почвы Tg s
Напр Скр Прв ур.ст ур.м изм
23:00 +20.3° Ю-В 2 - - - переменная облачность 711 750 +0.2 74% +15.6° более 2.5 км - - - -
20:00 +25.5° Ю-В 1 - 20 км - переменная облачность 711 749 -0.5 54% +15.6° более 2.5 км 0 - - -
17:00 +26.7° Ю 2 - 20 км - облачно с прояснениями 711 750 -1.1 54% +16.6° 1 км - - - -
14:00 +26.9° Ю,Ю-З 2 - 20 км - облачно с прояснениями 712 751 -1.3 55% +17.1° 1 км - - - -
11:00 +24° Ю-В 2 - 20 км - облачно с прояснениями 713 753 -0.6 57% +15° более 2.5 км - - - -
08:00 +18.3° Ю-В 2 - 10 км - облачно 714 754 +0.2 76% +13.9° более 2.5 км 0 Сухая (без трещин) +15° -
05:00 +15.7° В 2 - 10 км - переменная облачность 714 754 +0.4 91% +14.2° более 2.5 км - - - -
02:00 +17.3° В 1 - - - переменная облачность 714 753 -0.3 80% +13.9° более 2.5 км - - - -